createdAt,value
2022-12-09T00:02:02.398Z,29.05
2022-12-09T00:04:28.848Z,29.83
2022-12-09T00:06:55.511Z,31.00
2022-12-09T00:09:22.021Z,29.40
2022-12-09T00:11:48.596Z,30.42
2022-12-09T00:14:14.899Z,26.23
2022-12-09T00:16:41.617Z,27.55
2022-12-09T00:19:08.006Z,28.83
2022-12-09T00:21:34.739Z,29.55
2022-12-09T00:24:07.028Z,28.30
2022-12-09T00:26:33.731Z,29.52
2022-12-09T00:29:01.236Z,26.63
2022-12-09T00:31:31.841Z,24.35
2022-12-09T00:34:00.856Z,25.05
2022-12-09T00:36:28.499Z,20.60
2022-12-09T00:38:56.773Z,26.45
2022-12-09T00:41:23.336Z,25.05
2022-12-09T00:43:49.642Z,25.42
2022-12-09T00:46:16.412Z,26.45
2022-12-09T00:48:45.495Z,23.95
2022-12-09T00:51:16.216Z,25.35
2022-12-09T00:53:43.042Z,25.25
2022-12-09T00:56:10.040Z,25.73
2022-12-09T00:58:36.371Z,25.02
2022-12-09T01:01:03.044Z,22.85
2022-12-09T01:03:30.067Z,23.17
2022-12-09T01:05:56.696Z,24.50
2022-12-09T01:08:24.375Z,27.00
2022-12-09T01:10:50.934Z,22.17
2022-12-09T01:13:17.516Z,22.38
2022-12-09T01:15:44.548Z,23.25
2022-12-09T01:18:12.637Z,22.48
2022-12-09T01:20:39.348Z,26.20
2022-12-09T01:23:05.841Z,25.58
2022-12-09T01:25:32.374Z,23.95
2022-12-09T01:27:58.713Z,23.02
2022-12-09T01:30:25.355Z,25.27
2022-12-09T01:32:51.895Z,26.15
2022-12-09T01:35:18.435Z,23.35
2022-12-09T01:37:44.973Z,25.35
2022-12-09T01:40:16.795Z,25.05
2022-12-09T01:42:43.519Z,24.02
2022-12-09T01:45:22.250Z,21.25
2022-12-09T01:47:52.850Z,19.98
2022-12-09T01:50:20.092Z,26.45
2022-12-09T01:52:49.472Z,26.30
2022-12-09T01:55:16.818Z,25.30
2022-12-09T01:57:44.633Z,26.73
2022-12-09T02:00:12.762Z,26.67
2022-12-09T02:02:42.575Z,25.77
2022-12-09T02:05:09.499Z,25.65
2022-12-09T02:07:36.163Z,23.48
2022-12-09T02:10:09.762Z,26.08
2022-12-09T02:12:42.711Z,26.13
2022-12-09T02:15:17.993Z,26.48
2022-12-09T02:17:53.358Z,21.10
2022-12-09T02:20:45.401Z,24.85
2022-12-09T02:23:19.421Z,22.15
2022-12-09T02:25:49.626Z,21.95
2022-12-09T02:28:49.517Z,25.70
2022-12-09T02:31:46.865Z,22.05
2022-12-09T02:34:21.639Z,24.10
2022-12-09T02:37:03.729Z,26.05
2022-12-09T02:39:51.207Z,22.75
2022-12-09T02:42:20.666Z,27.80
2022-12-09T02:44:50.643Z,25.02
2022-12-09T02:47:21.236Z,22.77
2022-12-09T02:49:51.796Z,20.27
2022-12-09T02:52:19.467Z,23.02
2022-12-09T02:54:47.621Z,23.88
2022-12-09T02:57:18.732Z,24.95
2022-12-09T03:02:14.341Z,24.08
2022-12-09T03:04:44.603Z,21.92
2022-12-09T03:07:26.896Z,21.13
2022-12-09T03:10:02.244Z,21.60
2022-12-09T03:12:33.038Z,22.13
2022-12-09T03:15:01.944Z,21.83
2022-12-09T03:17:35.153Z,20.55
2022-12-09T03:20:29.772Z,25.27
2022-12-09T03:23:00.922Z,20.60
2022-12-09T03:28:03.519Z,25.25
2022-12-09T03:30:37.360Z,24.00
2022-12-09T03:33:05.102Z,24.17
2022-12-09T03:35:36.444Z,23.30
2022-12-09T03:38:06.875Z,25.48
2022-12-09T03:40:33.987Z,25.23
2022-12-09T03:43:23.847Z,23.45
2022-12-09T03:45:53.776Z,25.05
2022-12-09T03:48:21.494Z,21.92
2022-12-09T03:51:05.063Z,23.13
2022-12-09T03:53:57.919Z,21.77
2022-12-09T03:56:29.971Z,21.85
2022-12-09T03:58:59.803Z,24.80
2022-12-09T04:01:28.049Z,24.55
2022-12-09T04:03:56.288Z,25.23
2022-12-09T04:06:24.131Z,23.00
2022-12-09T04:08:50.950Z,31.50
2022-12-09T04:11:17.717Z,26.88
2022-12-09T04:13:44.084Z,24.17
2022-12-09T04:16:10.834Z,22.90
2022-12-09T04:18:37.336Z,22.25
2022-12-09T04:21:09.202Z,24.38
2022-12-09T04:23:41.032Z,24.23
2022-12-09T04:26:14.120Z,28.45
2022-12-09T04:31:11.256Z,27.50
2022-12-09T04:33:38.105Z,28.77
2022-12-09T04:36:10.244Z,33.80
2022-12-09T04:38:37.029Z,36.97
2022-12-09T04:41:04.217Z,35.75
2022-12-09T04:43:30.661Z,42.97
2022-12-09T04:46:02.558Z,39.13
2022-12-09T04:48:29.639Z,38.20
2022-12-09T04:50:56.499Z,33.22
2022-12-09T04:53:23.703Z,39.67
2022-12-09T04:56:03.734Z,40.83
2022-12-09T04:58:30.543Z,42.25
2022-12-09T05:00:57.660Z,39.47
2022-12-09T05:03:24.741Z,42.28
2022-12-09T05:05:51.336Z,42.08
2022-12-09T05:08:17.953Z,56.95
2022-12-09T05:10:49.212Z,40.22
2022-12-09T05:13:16.700Z,37.97
2022-12-09T05:15:43.569Z,44.38
2022-12-09T05:18:10.381Z,43.30
2022-12-09T05:20:39.509Z,35.78
2022-12-09T05:23:09.552Z,36.40
2022-12-09T05:25:37.208Z,44.00
2022-12-09T05:28:03.877Z,40.05
2022-12-09T05:30:30.629Z,39.33
2022-12-09T05:32:57.522Z,42.08
2022-12-09T05:35:24.320Z,36.83
2022-12-09T05:37:51.145Z,38.60
2022-12-09T05:40:17.814Z,41.92
2022-12-09T05:42:44.609Z,41.15
2022-12-09T05:45:11.776Z,39.95
2022-12-09T05:47:38.816Z,37.70
2022-12-09T05:50:08.626Z,40.28
2022-12-09T05:52:37.068Z,45.72
2022-12-09T05:55:08.962Z,42.25
2022-12-09T05:57:36.684Z,40.78
2022-12-09T06:00:06.710Z,43.17
2022-12-09T06:02:34.029Z,42.38
2022-12-09T06:05:01.071Z,45.45
2022-12-09T06:07:27.746Z,40.88
2022-12-09T06:09:54.719Z,50.45
2022-12-09T06:12:21.164Z,39.50
2022-12-09T06:14:47.708Z,42.72
2022-12-09T06:17:14.356Z,41.28
2022-12-09T06:19:40.868Z,35.50
2022-12-09T06:22:07.291Z,36.78
2022-12-09T06:24:35.219Z,44.92
2022-12-09T06:27:02.259Z,44.10
2022-12-09T06:29:28.891Z,44.03
2022-12-09T06:31:55.597Z,43.83
2022-12-09T06:34:22.330Z,42.00
2022-12-09T06:36:48.739Z,46.53
2022-12-09T06:39:15.335Z,39.03
2022-12-09T06:41:43.049Z,39.78
2022-12-09T06:44:16.971Z,39.42
2022-12-09T06:46:48.121Z,40.35
2022-12-09T06:49:15.055Z,41.22
2022-12-09T06:51:41.621Z,37.88
2022-12-09T06:54:09.618Z,46.42
2022-12-09T06:56:36.100Z,43.97
2022-12-09T06:59:07.768Z,43.08
2022-12-09T07:01:35.029Z,44.97
2022-12-09T07:04:04.241Z,43.22
2022-12-09T07:06:31.121Z,45.22
2022-12-09T07:09:04.634Z,35.63
2022-12-09T07:11:31.302Z,41.65
2022-12-09T07:13:58.397Z,36.25
2022-12-09T07:16:25.247Z,38.47
2022-12-09T07:18:52.760Z,32.35
2022-12-09T07:21:21.497Z,36.83
2022-12-09T07:23:48.529Z,34.28
2022-12-09T07:26:16.274Z,36.28
2022-12-09T07:28:43.597Z,34.38
2022-12-09T07:31:22.386Z,38.97
2022-12-09T07:33:50.033Z,36.85
2022-12-09T07:36:20.918Z,32.70
2022-12-09T07:38:48.402Z,42.70
2022-12-09T07:41:18.287Z,35.47
2022-12-09T07:43:46.159Z,36.00
2022-12-09T07:46:14.183Z,33.45
2022-12-09T07:48:41.682Z,36.40
2022-12-09T07:51:09.136Z,38.17
2022-12-09T07:53:36.795Z,35.67
2022-12-09T07:56:06.658Z,32.50
2022-12-09T07:58:33.752Z,36.35
2022-12-09T08:01:08.800Z,30.45
2022-12-09T08:03:36.642Z,32.72
2022-12-09T08:06:03.813Z,32.75
2022-12-09T08:08:32.020Z,32.17
2022-12-09T08:11:08.726Z,26.23
2022-12-09T08:13:36.693Z,28.30
2022-12-09T08:16:05.285Z,39.53
2022-12-09T08:18:33.359Z,30.02
2022-12-09T08:21:04.650Z,34.42
2022-12-09T08:25:58.087Z,40.22
2022-12-09T08:28:26.356Z,35.20
2022-12-09T08:30:52.972Z,33.30
2022-12-09T08:33:19.652Z,32.05
2022-12-09T08:35:46.417Z,31.73
2022-12-09T08:38:13.075Z,33.80
2022-12-09T08:40:40.166Z,32.22
2022-12-09T08:43:08.914Z,33.42
2022-12-09T08:45:36.582Z,32.47
2022-12-09T08:48:03.213Z,31.23
2022-12-09T08:50:30.402Z,36.40
2022-12-09T08:52:56.862Z,32.25
2022-12-09T08:55:23.389Z,32.55
2022-12-09T08:57:50.084Z,30.65
2022-12-09T09:00:17.484Z,35.25
2022-12-09T09:02:44.043Z,30.85
2022-12-09T09:05:10.805Z,30.58
2022-12-09T09:07:38.846Z,29.17
2022-12-09T09:10:06.899Z,32.05
2022-12-09T09:12:40.479Z,27.35
2022-12-09T09:15:10.516Z,31.88
2022-12-09T09:17:37.645Z,34.78
2022-12-09T09:20:05.039Z,35.28
2022-12-09T09:22:31.954Z,28.48
2022-12-09T09:24:58.844Z,29.52
2022-12-09T09:27:25.621Z,30.02
2022-12-09T09:29:52.353Z,35.15
2022-12-09T09:32:18.837Z,32.17
2022-12-09T09:34:45.970Z,35.65
2022-12-09T09:37:12.715Z,34.20
2022-12-09T09:39:40.733Z,34.58
2022-12-09T09:42:15.944Z,36.95
2022-12-09T09:44:52.126Z,34.60
2022-12-09T09:47:40.117Z,33.05
2022-12-09T09:50:19.730Z,28.02
2022-12-09T09:52:46.715Z,30.83
2022-12-09T09:55:19.197Z,36.75
2022-12-09T09:57:48.528Z,28.45
2022-12-09T10:00:27.057Z,27.75
2022-12-09T10:02:59.600Z,30.17
2022-12-09T10:05:33.005Z,29.08
2022-12-09T10:08:18.726Z,26.20
2022-12-09T10:11:14.992Z,27.88
2022-12-09T10:13:48.222Z,31.60
2022-12-09T10:16:25.135Z,23.80
2022-12-09T10:19:16.539Z,20.58
2022-12-09T10:24:24.224Z,22.58
2022-12-09T10:27:00.859Z,23.10
2022-12-09T10:30:00.894Z,24.92
2022-12-09T10:32:35.622Z,16.40
2022-12-09T10:35:14.202Z,22.92
2022-12-09T10:37:41.604Z,18.50
2022-12-09T10:40:08.460Z,27.85
2022-12-09T10:43:04.900Z,22.17
2022-12-09T10:46:00.120Z,19.52
2022-12-09T10:48:43.452Z,17.80
2022-12-09T10:51:17.691Z,19.90
2022-12-09T10:53:49.019Z,19.77
2022-12-09T10:56:25.953Z,17.83
2022-12-09T10:59:26.531Z,19.17
2022-12-09T11:01:54.760Z,21.47
2022-12-09T11:04:28.423Z,21.42
2022-12-09T11:07:00.042Z,24.67
2022-12-09T11:09:31.184Z,17.52
2022-12-09T11:11:59.271Z,24.05
2022-12-09T11:14:40.616Z,21.85
2022-12-09T11:17:13.670Z,23.90
2022-12-09T11:19:40.878Z,23.63
2022-12-09T11:22:22.366Z,22.15
2022-12-09T11:24:49.888Z,22.88
2022-12-09T11:27:26.417Z,24.30
2022-12-09T11:30:27.576Z,25.40
2022-12-09T11:33:02.184Z,24.33
2022-12-09T11:35:44.107Z,22.02
2022-12-09T11:38:22.858Z,21.40
2022-12-09T11:41:03.742Z,21.83
2022-12-09T11:43:47.144Z,19.60
2022-12-09T11:46:13.385Z,20.83
2022-12-09T11:48:44.035Z,22.38
2022-12-09T11:51:29.684Z,21.17
2022-12-09T11:54:19.887Z,21.38
2022-12-09T11:56:49.270Z,21.02
2022-12-09T11:59:22.441Z,20.85
2022-12-09T12:02:05.937Z,19.08
2022-12-09T12:04:57.318Z,19.55
2022-12-09T12:10:16.072Z,19.38
2022-12-09T12:13:02.101Z,23.92
2022-12-09T12:15:37.679Z,20.88
2022-12-09T12:18:07.783Z,20.13
2022-12-09T12:20:48.180Z,21.10
2022-12-09T12:23:29.764Z,20.83
2022-12-09T12:26:18.869Z,20.48
2022-12-09T12:29:05.555Z,21.88
2022-12-09T12:31:58.368Z,19.98
2022-12-09T12:34:39.466Z,25.23
2022-12-09T12:37:12.192Z,19.58
2022-12-09T12:39:53.165Z,24.58
2022-12-09T12:43:08.425Z,21.98
2022-12-09T12:46:11.421Z,21.67
2022-12-09T12:48:53.051Z,21.30
2022-12-09T12:51:45.013Z,21.25
2022-12-09T12:54:28.662Z,20.02
2022-12-09T12:57:10.569Z,21.65
2022-12-09T12:59:57.648Z,24.67
2022-12-09T13:02:43.779Z,23.95
2022-12-09T13:05:20.522Z,24.10
2022-12-09T13:07:54.442Z,23.75
2022-12-09T13:10:36.374Z,21.95
2022-12-09T13:13:05.488Z,23.90
2022-12-09T13:15:41.777Z,22.05
2022-12-09T13:18:20.436Z,24.00
2022-12-09T13:20:52.405Z,19.80
2022-12-09T13:23:44.991Z,22.38
2022-12-09T13:27:05.309Z,25.35
2022-12-09T13:29:39.453Z,23.75
2022-12-09T13:32:35.254Z,21.95
2022-12-09T13:35:12.121Z,27.45
2022-12-09T13:37:44.210Z,28.90
2022-12-09T13:40:30.716Z,24.10
2022-12-09T13:43:03.134Z,28.92
2022-12-09T13:45:47.550Z,25.65
2022-12-09T13:48:17.274Z,31.48
2022-12-09T13:50:43.972Z,26.85
2022-12-09T13:53:19.432Z,24.10
2022-12-09T13:56:10.836Z,22.90
2022-12-09T14:01:14.656Z,21.83
2022-12-09T14:03:46.968Z,22.23
2022-12-09T14:06:24.961Z,23.40
2022-12-09T14:08:56.945Z,21.60
2022-12-09T14:11:43.329Z,20.27
2022-12-09T14:14:38.118Z,19.42
2022-12-09T14:17:36.924Z,18.88
2022-12-09T14:20:21.187Z,18.40
2022-12-09T14:23:06.497Z,15.00
2022-12-09T14:25:33.654Z,18.42
2022-12-09T14:28:09.287Z,18.65
2022-12-09T14:30:53.936Z,22.58
2022-12-09T14:33:44.300Z,25.75
2022-12-09T14:36:13.412Z,28.83
2022-12-09T14:41:58.444Z,26.77
2022-12-09T14:44:40.965Z,23.40
2022-12-09T14:47:32.094Z,28.52
2022-12-09T14:50:24.483Z,27.83
2022-12-09T14:53:01.505Z,21.75
2022-12-09T14:55:30.126Z,29.45
2022-12-09T14:57:59.919Z,28.45
2022-12-09T15:00:32.270Z,23.20
2022-12-09T15:03:31.332Z,24.83
2022-12-09T15:06:26.844Z,24.30
2022-12-09T15:08:56.179Z,23.65
2022-12-09T15:11:31.320Z,25.23
2022-12-09T15:14:20.397Z,24.05
2022-12-09T15:16:50.462Z,19.45
2022-12-09T15:19:58.182Z,21.83
2022-12-09T15:22:20.847Z,18.98
2022-12-09T15:24:50.681Z,23.10
2022-12-09T15:27:20.037Z,23.03
2022-12-09T15:29:46.514Z,21.33
2022-12-09T15:32:22.741Z,23.98
2022-12-09T15:34:49.256Z,22.75
2022-12-09T15:37:19.186Z,90.57
2022-12-09T15:39:55.137Z,28.90
2022-12-09T15:42:27.078Z,35.22
2022-12-09T15:45:11.516Z,25.23
2022-12-09T15:48:04.542Z,26.85
2022-12-09T15:50:54.526Z,24.98
2022-12-09T15:53:36.067Z,25.33
2022-12-09T15:56:16.943Z,25.10
2022-12-09T15:58:49.144Z,24.30
2022-12-09T16:01:25.637Z,26.85
2022-12-09T16:03:54.269Z,27.58
2022-12-09T16:06:38.790Z,27.48
2022-12-09T16:09:13.581Z,28.77
2022-12-09T16:11:47.765Z,28.10
2022-12-09T16:14:16.417Z,34.42
2022-12-09T16:16:48.847Z,26.58
2022-12-09T16:19:33.627Z,25.13
2022-12-09T16:22:05.186Z,22.77
2022-12-09T16:24:57.994Z,27.60
2022-12-09T16:27:25.385Z,23.17
2022-12-09T16:30:13.664Z,23.38
2022-12-09T16:32:44.523Z,23.98
2022-12-09T16:35:10.770Z,25.25
2022-12-09T16:37:40.556Z,28.13
2022-12-09T16:40:22.232Z,29.20
2022-12-09T16:42:50.117Z,26.02
2022-12-09T16:45:30.477Z,22.20
2022-12-09T16:47:57.754Z,27.80
2022-12-09T16:50:29.474Z,27.50
2022-12-09T16:52:56.089Z,26.00
2022-12-09T16:55:25.389Z,26.58
2022-12-09T16:57:52.196Z,31.30
2022-12-09T17:00:18.801Z,27.75
2022-12-09T17:03:02.602Z,25.02
2022-12-09T17:05:28.918Z,24.92
2022-12-09T17:07:55.667Z,22.77
2022-12-09T17:10:22.531Z,24.63
2022-12-09T17:12:48.849Z,24.65
2022-12-09T17:15:17.759Z,33.10
2022-12-09T17:17:48.948Z,28.23
2022-12-09T17:22:42.876Z,24.63
2022-12-09T17:25:10.195Z,22.92
2022-12-09T17:27:36.908Z,31.00
2022-12-09T17:30:04.144Z,29.48
2022-12-09T17:32:30.502Z,26.10
2022-12-09T17:34:56.841Z,26.20
2022-12-09T17:37:23.185Z,25.02
2022-12-09T17:39:54.586Z,29.02
2022-12-09T17:42:23.484Z,27.38
2022-12-09T17:44:49.802Z,26.65
2022-12-09T17:47:16.144Z,30.00
2022-12-09T17:49:42.422Z,29.75
2022-12-09T17:52:08.779Z,25.83
2022-12-09T17:54:35.073Z,25.90
2022-12-09T17:57:01.382Z,33.53
2022-12-09T17:59:27.771Z,27.00
2022-12-09T18:01:54.112Z,29.20
2022-12-09T18:04:20.447Z,28.85
2022-12-09T18:06:46.760Z,27.75
2022-12-09T18:09:18.659Z,31.67
2022-12-09T18:11:45.809Z,54.38
2022-12-09T18:14:12.444Z,39.78
2022-12-09T18:16:38.953Z,44.83
2022-12-09T18:19:12.666Z,34.45
2022-12-09T18:21:39.145Z,28.15
2022-12-09T18:24:05.838Z,26.67
2022-12-09T18:26:38.145Z,28.98
2022-12-09T18:29:07.940Z,33.00
2022-12-09T18:31:34.342Z,33.00
2022-12-09T18:34:00.660Z,34.50
2022-12-09T18:36:28.098Z,26.92
2022-12-09T18:38:54.948Z,36.67
2022-12-09T18:41:28.879Z,27.55
2022-12-09T18:43:56.626Z,26.40
2022-12-09T18:46:31.927Z,36.00
2022-12-09T18:49:00.525Z,32.78
2022-12-09T18:51:28.083Z,39.58
2022-12-09T18:53:54.519Z,35.97
2022-12-09T18:56:21.024Z,38.13
2022-12-09T18:59:05.860Z,38.42
2022-12-09T19:01:34.015Z,46.70
2022-12-09T19:04:03.193Z,54.70
2022-12-09T19:06:32.710Z,54.17
2022-12-09T19:09:02.019Z,49.92
2022-12-09T19:11:30.955Z,45.00
2022-12-09T19:13:58.433Z,43.17
2022-12-09T19:16:25.980Z,41.67
2022-12-09T19:18:56.070Z,42.58
2022-12-09T19:21:23.963Z,40.78
2022-12-09T19:23:50.807Z,36.90
2022-12-09T19:26:18.739Z,41.97
2022-12-09T19:28:59.110Z,42.50
2022-12-09T19:31:28.071Z,40.80
2022-12-09T19:33:59.351Z,40.15
2022-12-09T19:36:27.658Z,39.83
2022-12-09T19:38:54.519Z,41.97
2022-12-09T19:41:21.301Z,44.80
2022-12-09T19:43:47.715Z,46.33
2022-12-09T19:46:15.344Z,40.42
2022-12-09T19:48:46.150Z,40.15
2022-12-09T19:51:15.957Z,41.40
2022-12-09T19:53:43.208Z,51.38
2022-12-09T19:56:14.743Z,46.53
2022-12-09T19:58:42.803Z,49.10
2022-12-09T20:01:11.448Z,50.65
2022-12-09T20:03:39.617Z,51.47
2022-12-09T20:06:07.969Z,60.97
2022-12-09T20:08:34.690Z,41.10
2022-12-09T20:11:01.021Z,42.17
2022-12-09T20:13:31.788Z,53.70
2022-12-09T20:16:03.999Z,60.03
2022-12-09T20:18:30.404Z,53.45
2022-12-09T20:21:01.313Z,66.25
2022-12-09T20:23:28.090Z,61.58
2022-12-09T20:25:54.446Z,56.55
2022-12-09T20:28:20.772Z,62.80
2022-12-09T20:30:47.107Z,48.88
2022-12-09T20:33:13.423Z,52.63
2022-12-09T20:35:39.776Z,51.65
2022-12-09T20:38:06.493Z,50.70
2022-12-09T20:40:40.397Z,41.63
2022-12-09T20:43:07.065Z,49.75
2022-12-09T20:45:33.376Z,39.95
2022-12-09T20:47:59.654Z,41.00
2022-12-09T20:50:26.020Z,39.13
2022-12-09T20:52:52.434Z,39.47
2022-12-09T20:55:20.411Z,38.78
2022-12-09T20:57:46.726Z,37.80
2022-12-09T21:00:13.332Z,46.03
2022-12-09T21:02:40.014Z,40.08
2022-12-09T21:05:08.384Z,38.97
2022-12-09T21:07:35.011Z,38.53
2022-12-09T21:10:01.428Z,41.35
2022-12-09T21:12:27.748Z,38.08
2022-12-09T21:14:54.060Z,38.95
2022-12-09T21:17:20.537Z,44.50
2022-12-09T21:19:47.116Z,34.80
2022-12-09T21:22:13.538Z,38.33
2022-12-09T21:24:39.894Z,38.03
2022-12-09T21:27:06.190Z,34.85
2022-12-09T21:29:32.677Z,43.92
2022-12-09T21:32:00.163Z,42.42
2022-12-09T21:34:27.080Z,41.97
2022-12-09T21:36:53.466Z,43.08
2022-12-09T21:39:19.931Z,41.38
2022-12-09T21:41:46.331Z,37.08
2022-12-09T21:44:18.047Z,40.90
2022-12-09T21:46:45.012Z,37.78
2022-12-09T21:49:11.745Z,41.75
2022-12-09T21:51:38.436Z,39.45
2022-12-09T21:54:05.070Z,39.33
2022-12-09T21:56:35.453Z,43.53
2022-12-09T21:59:03.695Z,41.90
2022-12-09T22:01:39.339Z,37.33
2022-12-09T22:04:08.741Z,36.58
2022-12-09T22:06:35.077Z,38.80
2022-12-09T22:09:02.746Z,44.20
2022-12-09T22:11:31.009Z,45.45
2022-12-09T22:13:59.173Z,40.78
2022-12-09T22:16:28.465Z,45.38
2022-12-09T22:18:57.047Z,41.42
2022-12-09T22:21:26.737Z,44.28
2022-12-09T22:23:55.410Z,41.50
2022-12-09T22:26:22.927Z,46.88
2022-12-09T22:28:49.778Z,40.95
2022-12-09T22:31:21.184Z,51.20
2022-12-09T22:33:49.330Z,38.47
2022-12-09T22:36:16.289Z,42.67
2022-12-09T22:38:43.256Z,41.67
2022-12-09T22:41:26.008Z,42.17
2022-12-09T22:43:54.259Z,42.20
2022-12-09T22:46:23.594Z,44.08
2022-12-09T22:48:50.709Z,38.85
2022-12-09T22:51:25.629Z,41.40
2022-12-09T22:53:54.018Z,48.05
2022-12-09T22:56:21.157Z,40.35
2022-12-09T22:58:47.761Z,39.97
2022-12-09T23:01:29.054Z,41.88
2022-12-09T23:03:56.673Z,42.10
2022-12-09T23:06:24.489Z,46.30
2022-12-09T23:08:51.069Z,45.70
2022-12-09T23:11:23.131Z,43.00
2022-12-09T23:13:49.846Z,45.50
2022-12-09T23:16:22.178Z,43.75
2022-12-09T23:18:49.402Z,41.47
2022-12-09T23:21:18.647Z,49.08
2022-12-09T23:23:45.235Z,51.33
2022-12-09T23:26:15.695Z,41.17
2022-12-09T23:28:44.959Z,47.88
2022-12-09T23:31:13.419Z,48.92
2022-12-09T23:33:42.122Z,44.33
2022-12-09T23:36:11.735Z,41.92
2022-12-09T23:38:38.087Z,43.53
2022-12-09T23:41:05.178Z,46.78
2022-12-09T23:43:35.929Z,44.10
2022-12-09T23:46:04.370Z,51.47
2022-12-09T23:48:30.926Z,52.60
2022-12-09T23:50:57.702Z,48.92
2022-12-09T23:53:24.165Z,49.90
2022-12-09T23:55:50.485Z,43.88
2022-12-09T23:58:17.391Z,47.35
